createdAt,value
2024-01-03T00:02:20.479Z,87.89
2024-01-03T00:05:17.920Z,87.86
2024-01-03T00:08:15.543Z,87.88
2024-01-03T00:11:15.414Z,87.97
2024-01-03T00:14:14.454Z,88.05
2024-01-03T00:17:12.284Z,88.02
2024-01-03T00:20:10.186Z,88.06
2024-01-03T00:23:07.999Z,88.07
2024-01-03T00:26:05.744Z,88.05
2024-01-03T00:29:03.146Z,88.12
2024-01-03T00:32:01.887Z,88.18
2024-01-03T00:34:59.449Z,88.21
2024-01-03T00:37:57.432Z,88.20
2024-01-03T00:40:54.870Z,88.13
2024-01-03T00:43:52.418Z,88.02
2024-01-03T00:46:49.788Z,87.88
2024-01-03T00:49:47.637Z,87.90
2024-01-03T00:52:45.086Z,87.87
2024-01-03T00:55:42.790Z,87.89
2024-01-03T00:58:40.179Z,87.95
2024-01-03T01:01:37.819Z,88.05
2024-01-03T01:04:35.233Z,88.26
2024-01-03T01:07:32.931Z,88.48
2024-01-03T01:10:30.306Z,88.69
2024-01-03T01:13:28.062Z,88.85
2024-01-03T01:16:25.465Z,88.77
2024-01-03T01:19:23.301Z,88.80
2024-01-03T01:22:20.891Z,88.85
2024-01-03T01:25:19.125Z,88.79
2024-01-03T01:28:16.811Z,88.74
2024-01-03T01:31:14.278Z,88.71
2024-01-03T01:34:12.126Z,88.62
2024-01-03T01:37:10.007Z,88.54
2024-01-03T01:40:07.660Z,88.50
2024-01-03T01:43:05.070Z,88.49
2024-01-03T01:46:02.687Z,88.47
2024-01-03T01:49:00.180Z,88.44
2024-01-03T01:51:57.968Z,88.44
2024-01-03T01:54:55.383Z,88.41
2024-01-03T01:57:53.257Z,88.41
2024-01-03T02:00:50.682Z,88.40
2024-01-03T02:03:48.409Z,88.46
2024-01-03T02:06:45.818Z,88.60
2024-01-03T02:09:44.124Z,88.78
2024-01-03T02:12:41.551Z,88.92
2024-01-03T02:15:39.104Z,89.03
2024-01-03T02:18:36.607Z,89.18
2024-01-03T02:21:34.462Z,89.30
2024-01-03T02:24:31.840Z,89.42
2024-01-03T02:27:29.425Z,89.49
2024-01-03T02:30:27.167Z,89.51
2024-01-03T02:33:25.012Z,89.54
2024-01-03T02:36:22.758Z,89.53
2024-01-03T02:39:20.167Z,89.50
2024-01-03T02:42:17.831Z,89.54
2024-01-03T02:45:15.570Z,89.59
2024-01-03T02:48:13.335Z,89.49
2024-01-03T02:51:11.400Z,89.46
2024-01-03T02:54:08.795Z,89.56
2024-01-03T02:57:06.646Z,89.68
2024-01-03T03:00:04.216Z,89.98
2024-01-03T03:03:02.228Z,90.17
2024-01-03T03:05:59.735Z,90.23
2024-01-03T03:09:09.193Z,90.22
2024-01-03T03:12:13.816Z,90.11
2024-01-03T03:15:11.230Z,89.94
2024-01-03T03:18:09.672Z,89.61
2024-01-03T03:21:07.842Z,89.16
2024-01-03T03:24:05.326Z,88.95
2024-01-03T03:27:03.212Z,88.52
2024-01-03T03:30:02.852Z,87.96
2024-01-03T03:33:00.874Z,87.41
2024-01-03T03:35:58.479Z,86.80
2024-01-03T03:38:57.132Z,86.27
2024-01-03T03:41:54.751Z,85.82
2024-01-03T03:44:52.602Z,85.57
2024-01-03T03:47:50.300Z,85.34
2024-01-03T03:50:48.844Z,85.03
2024-01-03T03:53:46.645Z,84.88
2024-01-03T03:56:44.120Z,84.17
2024-01-03T03:59:41.854Z,83.83
2024-01-03T04:02:39.360Z,83.47
2024-01-03T04:05:37.163Z,83.04
2024-01-03T04:08:34.618Z,82.90
2024-01-03T04:11:32.257Z,82.56
2024-01-03T04:14:29.671Z,82.42
2024-01-03T04:17:27.414Z,81.81
2024-01-03T04:20:24.906Z,81.62
2024-01-03T04:23:22.701Z,81.35
2024-01-03T04:26:20.225Z,81.05
2024-01-03T04:29:17.888Z,80.80
2024-01-03T04:32:15.594Z,80.71
2024-01-03T04:35:13.006Z,80.93
2024-01-03T04:38:10.937Z,80.79
2024-01-03T04:41:08.589Z,80.34
2024-01-03T04:44:06.155Z,80.26
2024-01-03T04:47:03.538Z,80.29
2024-01-03T04:50:01.332Z,80.19
2024-01-03T04:52:58.880Z,79.66
2024-01-03T04:55:56.580Z,79.52
2024-01-03T04:58:54.236Z,79.38
2024-01-03T05:01:51.613Z,78.94
2024-01-03T05:04:50.485Z,78.69
2024-01-03T05:07:48.295Z,78.58
2024-01-03T05:10:45.726Z,78.06
2024-01-03T05:13:43.276Z,78.02
2024-01-03T05:16:42.710Z,77.98
2024-01-03T05:19:40.810Z,77.95
2024-01-03T05:22:38.292Z,78.00
2024-01-03T05:25:35.958Z,77.40
2024-01-03T05:28:33.385Z,77.60
2024-01-03T05:31:31.129Z,77.21
2024-01-03T05:34:28.590Z,76.97
2024-01-03T05:37:26.482Z,76.70
2024-01-03T05:40:23.878Z,76.03
2024-01-03T05:43:22.563Z,75.42
2024-01-03T05:46:20.269Z,75.21
2024-01-03T05:49:17.779Z,75.09
2024-01-03T05:52:15.599Z,74.86
2024-01-03T05:55:13.379Z,75.07
2024-01-03T05:58:11.042Z,74.67
2024-01-03T06:01:09.264Z,74.38
2024-01-03T06:04:06.704Z,74.08
2024-01-03T06:07:04.350Z,74.19
2024-01-03T06:10:01.782Z,74.01
2024-01-03T06:12:59.449Z,74.07
2024-01-03T06:15:56.920Z,74.16
2024-01-03T06:18:54.753Z,74.05
2024-01-03T06:21:52.317Z,73.82
2024-01-03T06:24:49.915Z,73.79
2024-01-03T06:27:47.347Z,73.87
2024-01-03T06:30:45.331Z,73.96
2024-01-03T06:33:42.795Z,73.67
2024-01-03T06:36:40.541Z,73.75
2024-01-03T06:39:38.104Z,73.72
2024-01-03T06:42:35.492Z,73.95
2024-01-03T06:45:33.068Z,73.77
2024-01-03T06:48:30.677Z,73.85
2024-01-03T06:51:28.567Z,72.70
2024-01-03T06:54:26.001Z,72.70
2024-01-03T06:57:23.618Z,72.83
2024-01-03T07:00:21.014Z,72.84
2024-01-03T07:03:18.819Z,72.67
2024-01-03T07:06:16.936Z,72.52
2024-01-03T07:09:15.515Z,72.38
2024-01-03T07:12:12.943Z,72.30
2024-01-03T07:15:11.321Z,72.34
2024-01-03T07:18:09.118Z,72.17
2024-01-03T07:21:07.322Z,72.31
2024-01-03T07:24:04.799Z,72.23
2024-01-03T07:27:02.643Z,72.36
2024-01-03T07:30:00.205Z,72.26
2024-01-03T07:32:59.672Z,72.04
2024-01-03T07:35:57.605Z,72.04
2024-01-03T07:38:59.676Z,71.97
2024-01-03T07:41:57.303Z,71.93
2024-01-03T07:44:55.048Z,71.83
2024-01-03T07:47:53.005Z,71.80
2024-01-03T07:50:51.873Z,71.25
2024-01-03T07:53:49.598Z,71.46
2024-01-03T07:56:47.397Z,70.71
2024-01-03T07:59:46.656Z,70.43
2024-01-03T08:02:44.397Z,70.09
2024-01-03T08:05:42.139Z,69.75
2024-01-03T08:08:39.626Z,68.99
2024-01-03T08:11:37.379Z,68.98
2024-01-03T08:14:35.638Z,68.70
2024-01-03T08:17:33.076Z,68.26
2024-01-03T08:20:31.070Z,68.53
2024-01-03T08:23:28.712Z,68.30
2024-01-03T08:26:26.477Z,68.17
2024-01-03T08:29:23.932Z,67.74
2024-01-03T08:32:22.032Z,66.92
2024-01-03T08:35:19.635Z,67.28
2024-01-03T08:38:18.144Z,66.91
2024-01-03T08:41:16.148Z,66.55
2024-01-03T08:44:14.206Z,65.62
2024-01-03T08:47:11.588Z,65.41
2024-01-03T08:50:09.269Z,65.47
2024-01-03T08:53:06.691Z,65.47
2024-01-03T08:56:06.602Z,65.02
2024-01-03T08:59:04.526Z,64.19
2024-01-03T09:02:02.936Z,64.58
2024-01-03T09:05:00.502Z,64.88
2024-01-03T09:07:58.119Z,64.43
2024-01-03T09:10:55.851Z,64.06
2024-01-03T09:13:53.527Z,64.09
2024-01-03T09:16:52.400Z,64.18
2024-01-03T09:19:50.043Z,63.81
2024-01-03T09:22:47.813Z,62.91
2024-01-03T09:25:45.600Z,63.36
2024-01-03T09:28:43.565Z,62.87
2024-01-03T09:31:41.138Z,63.01
2024-01-03T09:34:38.896Z,63.48
2024-01-03T09:37:36.770Z,63.65
2024-01-03T09:40:35.264Z,62.88
2024-01-03T09:43:33.129Z,62.85
2024-01-03T09:46:30.502Z,63.32
2024-01-03T09:49:28.404Z,63.61
2024-01-03T09:52:26.178Z,63.71
2024-01-03T09:55:23.575Z,63.17
2024-01-03T09:58:21.958Z,63.03
2024-01-03T10:01:19.450Z,63.65
2024-01-03T10:04:17.160Z,63.69
2024-01-03T10:07:14.535Z,63.59
2024-01-03T10:10:12.188Z,63.25
2024-01-03T10:13:09.858Z,62.98
2024-01-03T10:16:07.261Z,63.40
2024-01-03T10:19:05.130Z,63.36
2024-01-03T10:22:03.592Z,63.16
2024-01-03T10:25:01.260Z,62.21
2024-01-03T10:27:58.708Z,63.04
2024-01-03T10:30:57.228Z,62.63
2024-01-03T10:34:02.984Z,62.67
2024-01-03T10:37:01.782Z,62.85
2024-01-03T10:40:01.500Z,62.27
2024-01-03T10:42:59.234Z,62.44
2024-01-03T10:45:58.456Z,62.55
2024-01-03T10:48:56.354Z,62.70
2024-01-03T10:51:53.962Z,62.78
2024-01-03T10:54:51.610Z,62.68
2024-01-03T10:57:49.391Z,62.67
2024-01-03T11:00:47.109Z,62.52
2024-01-03T11:03:44.687Z,62.83
2024-01-03T11:06:42.545Z,62.40
2024-01-03T11:09:40.117Z,62.37
2024-01-03T11:12:37.737Z,62.16
2024-01-03T11:15:43.997Z,62.30
2024-01-03T11:18:45.840Z,62.55
2024-01-03T11:21:43.789Z,62.40
2024-01-03T11:24:41.160Z,62.72
2024-01-03T11:27:38.824Z,62.71
2024-01-03T11:30:36.440Z,62.76
2024-01-03T11:33:34.432Z,63.02
2024-01-03T11:36:31.982Z,62.53
2024-01-03T11:39:29.700Z,62.68
2024-01-03T11:42:27.093Z,62.48
2024-01-03T11:45:25.336Z,62.68
2024-01-03T11:48:22.928Z,62.49
2024-01-03T11:51:20.764Z,62.26
2024-01-03T11:54:18.204Z,62.26
2024-01-03T11:57:15.896Z,62.15
2024-01-03T12:00:13.482Z,62.24
2024-01-03T12:03:11.380Z,61.35
2024-01-03T12:06:09.535Z,61.50
2024-01-03T12:09:07.784Z,61.56
2024-01-03T12:12:06.335Z,61.01
2024-01-03T12:15:04.110Z,60.87
2024-01-03T12:18:01.715Z,60.49
2024-01-03T12:20:59.604Z,60.46
2024-01-03T12:23:57.419Z,60.61
2024-01-03T12:26:55.199Z,60.68
2024-01-03T12:29:52.874Z,59.98
2024-01-03T12:32:50.735Z,59.98
2024-01-03T12:35:48.385Z,59.89
2024-01-03T12:38:46.453Z,59.51
2024-01-03T12:41:44.029Z,59.26
2024-01-03T12:44:41.831Z,58.78
2024-01-03T12:47:39.655Z,59.41
2024-01-03T12:50:38.491Z,59.01
2024-01-03T12:53:38.075Z,59.11
2024-01-03T12:56:35.515Z,59.00
2024-01-03T12:59:33.313Z,59.26
2024-01-03T13:02:30.736Z,59.30
2024-01-03T13:05:28.487Z,59.07
2024-01-03T13:08:25.975Z,58.96
2024-01-03T13:11:23.675Z,58.98
2024-01-03T13:14:21.323Z,58.82
2024-01-03T13:17:19.845Z,58.75
2024-01-03T13:20:17.281Z,58.82
2024-01-03T13:23:15.027Z,58.92
2024-01-03T13:26:12.411Z,59.13
2024-01-03T13:29:10.042Z,58.68
2024-01-03T13:32:07.746Z,58.25
2024-01-03T13:35:05.496Z,58.60
2024-01-03T13:38:03.079Z,58.77
2024-01-03T13:41:00.712Z,58.84
2024-01-03T13:44:00.826Z,58.42
2024-01-03T13:46:58.503Z,58.64
2024-01-03T13:49:56.484Z,58.58
2024-01-03T13:52:54.363Z,58.81
2024-01-03T13:55:51.860Z,58.44
2024-01-03T13:58:49.890Z,58.72
2024-01-03T14:01:47.294Z,57.98
2024-01-03T14:04:45.101Z,58.14
2024-01-03T14:07:42.957Z,58.63
2024-01-03T14:10:40.344Z,58.62
2024-01-03T14:13:37.988Z,58.16
2024-01-03T14:16:35.372Z,58.26
2024-01-03T14:19:33.078Z,58.10
2024-01-03T14:22:30.778Z,57.80
2024-01-03T14:25:28.362Z,58.14
2024-01-03T14:28:25.992Z,57.97
2024-01-03T14:31:27.226Z,57.73
2024-01-03T14:34:24.915Z,57.69
2024-01-03T14:37:23.187Z,57.90
2024-01-03T14:40:24.553Z,57.92
2024-01-03T14:43:35.815Z,57.88
2024-01-03T14:46:34.533Z,57.87
2024-01-03T14:49:32.262Z,58.43
2024-01-03T14:52:29.711Z,58.06
2024-01-03T14:55:27.434Z,58.46
2024-01-03T14:58:25.324Z,58.20
2024-01-03T15:01:23.110Z,57.95
2024-01-03T15:04:21.694Z,57.73
2024-01-03T15:07:19.137Z,57.75
2024-01-03T15:10:16.872Z,57.90
2024-01-03T15:13:14.501Z,57.73
2024-01-03T15:16:12.489Z,57.89
2024-01-03T15:19:10.107Z,57.91
2024-01-03T15:22:10.657Z,57.57
2024-01-03T15:25:08.376Z,57.38
2024-01-03T15:28:06.148Z,57.51
2024-01-03T15:31:03.592Z,57.42
2024-01-03T15:34:01.838Z,57.53
2024-01-03T15:37:01.375Z,57.76
2024-01-03T15:39:59.148Z,57.74
2024-01-03T15:42:59.427Z,57.53
2024-01-03T15:45:57.251Z,57.59
2024-01-03T15:48:55.239Z,57.66
2024-01-03T15:51:52.751Z,57.74
2024-01-03T15:54:50.349Z,57.69
2024-01-03T15:57:48.156Z,57.69
2024-01-03T16:00:46.125Z,57.86
2024-01-03T16:03:44.043Z,57.89
2024-01-03T16:06:43.338Z,57.86
2024-01-03T16:09:41.169Z,58.11
2024-01-03T16:12:38.637Z,58.37
2024-01-03T16:15:36.627Z,58.47
2024-01-03T16:18:34.357Z,58.83
2024-01-03T16:21:32.290Z,59.14
2024-01-03T16:24:29.731Z,59.29
2024-01-03T16:27:27.659Z,59.52
2024-01-03T16:30:25.766Z,59.73
2024-01-03T16:33:23.823Z,60.01
2024-01-03T16:36:21.551Z,59.89
2024-01-03T16:39:21.766Z,59.56
2024-01-03T16:42:20.234Z,59.61
2024-01-03T16:45:20.510Z,59.33
2024-01-03T16:48:18.958Z,59.32
2024-01-03T16:51:16.721Z,59.02
2024-01-03T16:54:15.047Z,59.37
2024-01-03T16:57:12.975Z,59.58
2024-01-03T17:00:10.760Z,59.77
2024-01-03T17:03:08.776Z,59.85
2024-01-03T17:06:06.462Z,60.00
2024-01-03T17:09:06.317Z,60.29
2024-01-03T17:12:04.186Z,60.61
2024-01-03T17:15:01.695Z,60.79
2024-01-03T17:17:59.604Z,60.88
2024-01-03T17:20:57.368Z,60.92
2024-01-03T17:23:56.118Z,61.06
2024-01-03T17:26:54.611Z,61.24
2024-01-03T17:29:52.340Z,61.70
2024-01-03T17:32:49.940Z,61.89
2024-01-03T17:35:47.751Z,62.20
2024-01-03T17:38:45.893Z,62.25
2024-01-03T17:41:46.018Z,62.45
2024-01-03T17:44:43.612Z,62.63
2024-01-03T17:47:41.668Z,62.82
2024-01-03T17:50:39.195Z,63.09
2024-01-03T17:53:36.932Z,63.30
2024-01-03T17:56:34.353Z,63.61
2024-01-03T17:59:35.481Z,63.89
2024-01-03T18:02:33.690Z,64.10
2024-01-03T18:05:31.649Z,64.00
2024-01-03T18:08:29.478Z,64.51
2024-01-03T18:11:27.171Z,64.75
2024-01-03T18:14:24.787Z,64.89
2024-01-03T18:17:22.831Z,64.98
2024-01-03T18:20:21.501Z,65.09
2024-01-03T18:23:19.925Z,65.07
2024-01-03T18:26:20.584Z,65.24
2024-01-03T18:29:19.944Z,65.32
2024-01-03T18:32:17.732Z,65.37
2024-01-03T18:35:15.690Z,65.44
2024-01-03T18:38:15.809Z,65.57
2024-01-03T18:41:13.202Z,65.74
2024-01-03T18:44:11.067Z,65.98
2024-01-03T18:47:08.505Z,66.16
2024-01-03T18:50:06.623Z,66.37
2024-01-03T18:53:04.050Z,66.57
2024-01-03T18:56:01.777Z,66.74
2024-01-03T18:59:02.051Z,67.01
2024-01-03T19:02:00.188Z,67.03
2024-01-03T19:04:58.667Z,67.35
2024-01-03T19:07:56.349Z,67.42
2024-01-03T19:10:53.858Z,67.45
2024-01-03T19:13:51.434Z,67.56
2024-01-03T19:16:48.838Z,67.65
2024-01-03T19:19:46.777Z,67.78
2024-01-03T19:22:47.292Z,67.92
2024-01-03T19:25:45.215Z,68.08
2024-01-03T19:28:42.634Z,68.22
2024-01-03T19:31:40.274Z,68.29
2024-01-03T19:34:39.189Z,68.47
2024-01-03T19:37:36.780Z,68.61
2024-01-03T19:40:34.508Z,68.79
2024-01-03T19:43:31.960Z,69.05
2024-01-03T19:46:33.466Z,69.03
2024-01-03T19:49:33.209Z,69.28
2024-01-03T19:52:31.408Z,69.43
2024-01-03T19:58:48.998Z,69.66
2024-01-03T20:01:48.165Z,69.77
2024-01-03T20:04:46.928Z,69.90
2024-01-03T20:07:44.865Z,70.13
2024-01-03T20:10:45.039Z,70.24
2024-01-03T20:13:44.576Z,70.41
2024-01-03T20:16:46.202Z,70.59
2024-01-03T20:19:48.941Z,70.79
2024-01-03T20:22:48.154Z,70.95
2024-01-03T20:25:50.301Z,71.12
2024-01-03T20:28:51.392Z,71.26
2024-01-03T20:31:49.202Z,71.35
2024-01-03T20:34:46.785Z,71.50
2024-01-03T20:37:44.435Z,71.67
2024-01-03T20:40:42.104Z,71.77
2024-01-03T20:43:39.502Z,71.89
2024-01-03T20:46:37.325Z,72.04
2024-01-03T20:49:34.980Z,72.14
2024-01-03T20:52:32.752Z,72.24
2024-01-03T20:55:30.606Z,72.38
2024-01-03T20:58:28.384Z,72.39
2024-01-03T21:01:25.832Z,72.61
2024-01-03T21:04:23.550Z,72.80
2024-01-03T21:07:21.066Z,73.09
2024-01-03T21:10:19.933Z,73.19
2024-01-03T21:13:17.420Z,73.23
2024-01-03T21:16:15.348Z,73.38
2024-01-03T21:19:13.886Z,73.54
2024-01-03T21:22:11.783Z,73.69
2024-01-03T21:25:09.164Z,73.77
2024-01-03T21:28:07.098Z,73.94
2024-01-03T21:31:04.550Z,74.10
2024-01-03T21:34:07.322Z,74.21
2024-01-03T21:37:05.415Z,74.33
2024-01-03T21:40:02.840Z,74.43
2024-01-03T21:43:01.678Z,74.48
2024-01-03T21:45:59.072Z,74.68
2024-01-03T21:48:56.916Z,74.82
2024-01-03T21:51:54.764Z,74.91
2024-01-03T21:54:52.303Z,74.91
2024-01-03T21:57:49.893Z,74.95
2024-01-03T22:00:47.344Z,75.02
2024-01-03T22:03:45.215Z,75.12
2024-01-03T22:06:42.848Z,75.21
2024-01-03T22:09:40.456Z,75.30
2024-01-03T22:12:37.865Z,75.43
2024-01-03T22:15:35.470Z,75.55
2024-01-03T22:18:33.038Z,75.63
2024-01-03T22:21:30.914Z,75.69
2024-01-03T22:24:28.411Z,75.74
2024-01-03T22:27:26.129Z,75.69
2024-01-03T22:30:23.940Z,75.77
2024-01-03T22:33:21.550Z,75.77
2024-01-03T22:36:19.337Z,75.85
2024-01-03T22:39:17.103Z,75.87
2024-01-03T22:42:15.156Z,75.94
2024-01-03T22:45:12.911Z,76.02
2024-01-03T22:48:10.792Z,75.90
2024-01-03T22:51:10.052Z,75.89
2024-01-03T22:54:08.361Z,75.71
2024-01-03T22:57:05.864Z,75.58
2024-01-03T23:00:04.708Z,75.38
2024-01-03T23:03:02.352Z,75.17
2024-01-03T23:05:59.965Z,74.97
2024-01-03T23:08:57.890Z,74.33
2024-01-03T23:11:55.367Z,74.06
2024-01-03T23:14:53.201Z,73.73
2024-01-03T23:17:50.801Z,73.46
2024-01-03T23:20:48.831Z,73.00
2024-01-03T23:23:46.370Z,72.25
2024-01-03T23:26:43.987Z,71.60
2024-01-03T23:29:41.426Z,70.59
2024-01-03T23:32:39.206Z,69.82
2024-01-03T23:35:36.648Z,69.10
2024-01-03T23:38:34.326Z,68.32
2024-01-03T23:41:32.259Z,67.74
2024-01-03T23:44:30.193Z,67.23
2024-01-03T23:47:27.642Z,66.77
2024-01-03T23:50:25.227Z,66.48
2024-01-03T23:53:22.626Z,65.76
2024-01-03T23:56:20.378Z,65.31
2024-01-03T23:59:17.776Z,65.16
